Sevierville, TN

10:53 PM EDT on July 28, 2015 (GMT -0400)
APRSWXNET | | Change Station
CLOSE
Current Station
Personal Weather Station
Location: Sevierville, TN
Elevation: 1184 ft
Nearby Weather Stations

Elev 1184 ft 35.88 °N, 83.56 °W | Updated 26 minutes ago

Clear
Clear
78 °F
Feels Like 80 °F
N
0
Wind Variable Wind from SW
Gusts 0.0 mph

Today
High -- | Low -- °F
--% Chance of Precip.
Yesterday
High -- | Low -- °F
Precip. -- in
6:38 AM 8:42 PM
Waxing Gibbous, 93% visible
Pressure 29.96 in
Visibility 10.0 miles
Clouds Few 3500 ft
Scattered Clouds 8500 ft
Mostly Cloudy 15000 ft
Mostly Cloudy 25000 ft
Heat Index 80 °F
Dew Point 71 °F
Humidity 80%
Rainfall in
Snow Depth Not available.
UV 0 out of 12
Pollen 3.80 out of 12
Air Quality Not available.
Flu Activity Not available.
METAR KTYS 290153Z 25006KT 10SM FEW035 SCT085 BKN150 BKN250 27/22 A3000 RMK AO2 SLP146 T02670222 $

More Conditions Fewer Conditions

Pressure 29.96 in
Visibility 10.0 miles
Clouds Few 3500 ft
Scattered Clouds 8500 ft
Mostly Cloudy 15000 ft
Mostly Cloudy 25000 ft
Heat Index 80 °F
Dew Point 71 °F
Humidity 80%
Rainfall in
Snow Depth Not available.
UV 0 out of 12
Pollen 3.80 out of 12
Air Quality Not available.
Flu Activity Not available.
METAR KTYS 290153Z 25006KT 10SM FEW035 SCT085 BKN150 BKN250 27/22 A3000 RMK AO2 SLP146 T02670222 $

More Conditions Fewer Conditions

10-Day Weather Forecast

×

Almanac

Astronomy

Jul. 28, 2015 Rise Set
Actual Time
Civil Twilight
Nautical Twilight
Astronomical Twilight
Moon
Length of Visible Light
Length of Day
Tomorrow will be .
, % of the Moon is Illuminated

Today's Extremes

State Highs State Lows

Community

WunderPhotos

Upload Photos

1,842,013 photos uploaded!

WunderBlogs® & News

Nearby

Air Quality

  Air Quality AQ Index Pollutant
Not available.

Snow Depth

Station Depth Elevation

Earthquake Activity

City Distance Mag. Time & Date
Minimum magnitude displayed is 2.5.

Coastal Water Temperatures

Place Temperature

Stations

Nearby Weather Stations

Station Location Temp. Windchill Dew Point Humidity Wind Precip. Elev Updated Type